createdAt,value
2019-01-20T00:03:09.421Z,-4.38
2019-01-20T00:07:15.118Z,-4.41
2019-01-20T00:11:18.745Z,-4.41
2019-01-20T00:15:22.411Z,-4.39
2019-01-20T00:19:26.084Z,-4.45
2019-01-20T00:23:29.765Z,-4.36
2019-01-20T00:27:33.423Z,-4.42
2019-01-20T00:31:37.110Z,-4.35
2019-01-20T00:35:40.758Z,-4.36
2019-01-20T00:39:44.675Z,-4.57
2019-01-20T00:43:48.352Z,-4.67
2019-01-20T00:47:52.012Z,-4.75
2019-01-20T00:51:55.669Z,-4.81
2019-01-20T00:55:59.325Z,-4.80
2019-01-20T01:00:02.981Z,-4.89
2019-01-20T01:04:06.650Z,-4.81
2019-01-20T01:08:10.370Z,-4.67
2019-01-20T01:12:17.224Z,-4.60
2019-01-20T01:16:20.890Z,-4.77
2019-01-20T01:20:24.560Z,-4.85
2019-01-20T01:24:28.220Z,-4.71
2019-01-20T01:28:31.876Z,-4.84
2019-01-20T01:32:35.879Z,-4.69
2019-01-20T01:36:39.533Z,-4.87
2019-01-20T01:40:43.180Z,-4.66
2019-01-20T01:44:46.841Z,-4.73
2019-01-20T01:48:50.500Z,-4.88
2019-01-20T01:52:54.163Z,-4.93
2019-01-20T01:56:57.825Z,-4.93
2019-01-20T02:01:01.499Z,-4.65
2019-01-20T02:05:05.427Z,-4.72
2019-01-20T02:09:09.122Z,-4.77
2019-01-20T02:13:12.782Z,-4.96
2019-01-20T02:17:16.535Z,-4.90
2019-01-20T02:21:20.206Z,-5.08
2019-01-20T02:25:23.855Z,-5.16
2019-01-20T02:29:27.510Z,-5.17
2019-01-20T02:33:31.186Z,-5.34
2019-01-20T02:37:34.842Z,-5.31
2019-01-20T02:41:38.487Z,-5.30
2019-01-20T02:45:42.146Z,-5.35
2019-01-20T02:49:45.795Z,-5.48
2019-01-20T02:53:49.551Z,-5.58
2019-01-20T02:57:53.209Z,-5.59
2019-01-20T03:01:56.870Z,-5.71
2019-01-20T03:06:00.521Z,-5.79
2019-01-20T03:10:04.626Z,-5.85
2019-01-20T03:14:08.279Z,-5.98
2019-01-20T03:18:11.929Z,-6.02
2019-01-20T03:22:15.590Z,-5.91
2019-01-20T03:26:19.253Z,-6.00
2019-01-20T03:30:23.415Z,-5.89
2019-01-20T03:34:27.123Z,-6.00
2019-01-20T03:38:30.783Z,-5.91
2019-01-20T03:42:34.447Z,-6.07
2019-01-20T03:46:38.099Z,-6.16
2019-01-20T03:50:41.763Z,-6.21
2019-01-20T03:54:45.551Z,-6.32
2019-01-20T03:58:49.201Z,-6.26
2019-01-20T04:03:03.684Z,-6.41
2019-01-20T04:07:07.456Z,-6.31
2019-01-20T04:11:11.105Z,-6.21
2019-01-20T04:15:14.771Z,-6.39
2019-01-20T04:19:18.568Z,-6.36
2019-01-20T04:23:22.480Z,-6.31
2019-01-20T04:27:26.130Z,-6.33
2019-01-20T04:31:29.787Z,-6.47
2019-01-20T04:35:33.449Z,-6.31
2019-01-20T04:39:37.101Z,-6.27
2019-01-20T04:43:40.760Z,-6.41
2019-01-20T04:47:44.448Z,-6.40
2019-01-20T04:51:48.097Z,-6.45
2019-01-20T04:55:52.073Z,-6.64
2019-01-20T04:59:55.714Z,-6.69
2019-01-20T05:03:59.396Z,-6.59
2019-01-20T05:08:03.052Z,-6.66
2019-01-20T05:12:06.721Z,-6.72
2019-01-20T05:16:10.387Z,-6.81
2019-01-20T05:20:14.076Z,-6.81
2019-01-20T05:24:17.737Z,-6.78
2019-01-20T05:28:21.402Z,-6.93
2019-01-20T05:32:25.066Z,-6.92
2019-01-20T05:36:28.727Z,-7.02
2019-01-20T05:40:32.378Z,-6.91
2019-01-20T05:44:36.039Z,-6.84
2019-01-20T05:48:39.713Z,-7.04
2019-01-20T05:52:43.459Z,-7.11
2019-01-20T05:56:47.108Z,-7.06
2019-01-20T06:00:50.799Z,-7.29
2019-01-20T06:04:54.546Z,-7.19
2019-01-20T06:08:58.961Z,-7.43
2019-01-20T06:13:02.652Z,-7.21
2019-01-20T06:17:06.303Z,-7.27
2019-01-20T06:21:09.978Z,-7.37
2019-01-20T06:25:13.659Z,-7.34
2019-01-20T06:29:17.299Z,-7.34
2019-01-20T06:33:21.039Z,-7.28
2019-01-20T06:37:24.691Z,-7.37
2019-01-20T06:41:28.362Z,-7.59
2019-01-20T06:45:32.364Z,-7.56
2019-01-20T06:49:36.095Z,-7.53
2019-01-20T06:53:40.013Z,-7.59
2019-01-20T06:57:43.702Z,-7.56
2019-01-20T07:01:48.125Z,-7.53
2019-01-20T07:05:51.786Z,-7.60
2019-01-20T07:09:55.544Z,-7.77
2019-01-20T07:13:59.199Z,-7.71
2019-01-20T07:18:02.888Z,-7.65
2019-01-20T07:22:06.605Z,-7.62
2019-01-20T07:26:10.278Z,-7.67
2019-01-20T07:30:19.443Z,-7.87
2019-01-20T07:34:23.178Z,-7.76
2019-01-20T07:38:26.860Z,-7.62
2019-01-20T07:42:30.521Z,-7.73
2019-01-20T07:46:34.198Z,-7.82
2019-01-20T07:50:37.985Z,-7.74
2019-01-20T07:54:41.652Z,-7.63
2019-01-20T07:58:45.329Z,-7.51
2019-01-20T08:02:48.983Z,-7.50
2019-01-20T08:06:52.650Z,-7.44
2019-01-20T08:10:56.377Z,-7.39
2019-01-20T08:32:44.707Z,-5.56
2019-01-20T08:36:49.752Z,-6.59
2019-01-20T08:40:54.629Z,-6.79
2019-01-20T08:44:59.559Z,-6.92
2019-01-20T08:49:05.138Z,-6.69
2019-01-20T08:53:10.384Z,-6.72
2019-01-20T08:57:15.276Z,-6.53
2019-01-20T09:01:20.173Z,-6.27
2019-01-20T09:05:25.093Z,-6.10
2019-01-20T09:09:30.112Z,-5.81
2019-01-20T09:13:39.743Z,-5.69
2019-01-20T09:17:42.217Z,-5.31
2019-01-20T09:21:47.242Z,-5.20
2019-01-20T09:25:52.208Z,-5.05
2019-01-20T09:29:57.497Z,-4.15
2019-01-20T09:34:02.503Z,-3.96
2019-01-20T09:38:07.451Z,-4.10
2019-01-20T09:42:12.360Z,-3.70
2019-01-20T09:46:17.269Z,-3.71
2019-01-20T09:50:22.255Z,-3.52
2019-01-20T09:54:27.560Z,-3.34
2019-01-20T09:58:32.806Z,-3.42
2019-01-20T10:02:37.800Z,-3.16
2019-01-20T10:06:42.747Z,-2.96
2019-01-20T10:10:47.952Z,-2.88
2019-01-20T10:14:52.930Z,-2.97
2019-01-20T10:18:57.955Z,-2.60
2019-01-20T10:23:02.945Z,-2.45
2019-01-20T10:27:07.855Z,-2.38
2019-01-20T10:31:13.373Z,-2.32
2019-01-20T10:35:20.200Z,-2.22
2019-01-20T10:39:25.609Z,-1.97
2019-01-20T10:43:30.604Z,-1.95
2019-01-20T10:47:35.563Z,-2.12
2019-01-20T10:52:05.279Z,-2.01
2019-01-20T10:56:10.301Z,-1.84
2019-01-20T11:00:23.117Z,-1.44
2019-01-20T11:04:28.170Z,-1.70
2019-01-20T11:08:33.203Z,-1.21
2019-01-20T11:12:38.159Z,-1.40
2019-01-20T11:16:43.073Z,-1.30
2019-01-20T11:20:47.964Z,-1.29
2019-01-20T11:24:52.871Z,-1.32
2019-01-20T11:28:57.765Z,-1.13
2019-01-20T11:33:02.699Z,-0.73
2019-01-20T11:37:07.927Z,-0.37
2019-01-20T11:41:12.867Z,-0.31
2019-01-20T11:45:24.205Z,0.07
2019-01-20T11:49:29.468Z,0.01
2019-01-20T11:53:34.436Z,0.36
2019-01-20T11:57:39.360Z,0.57
2019-01-20T12:01:44.315Z,0.73
2019-01-20T12:05:49.490Z,0.77
2019-01-20T12:09:54.388Z,0.70
2019-01-20T12:13:59.294Z,0.83
2019-01-20T12:18:04.767Z,0.85
2019-01-20T12:22:09.910Z,0.95
2019-01-20T12:26:15.185Z,0.99
2019-01-20T12:30:23.375Z,1.48
2019-01-20T12:34:28.403Z,1.86
2019-01-20T12:38:33.385Z,1.72
2019-01-20T12:42:38.435Z,2.82
2019-01-20T12:46:43.653Z,3.67
2019-01-20T12:50:48.574Z,2.88
2019-01-20T12:54:53.479Z,4.30
2019-01-20T12:58:58.382Z,3.99
2019-01-20T13:03:03.337Z,4.88
2019-01-20T13:07:08.521Z,6.10
2019-01-20T13:11:13.437Z,6.09
2019-01-20T13:15:20.339Z,4.51
2019-01-20T13:19:25.238Z,6.92
2019-01-20T13:23:30.298Z,5.68
2019-01-20T13:27:35.246Z,6.01
2019-01-20T13:31:47.805Z,5.41
2019-01-20T13:35:52.748Z,5.49
2019-01-20T13:39:57.632Z,4.86
2019-01-20T13:44:02.640Z,4.55
2019-01-20T13:48:07.602Z,4.19
2019-01-20T13:52:12.732Z,3.82
2019-01-20T13:56:17.619Z,3.17
2019-01-20T14:00:23.338Z,2.44
2019-01-20T14:04:28.256Z,2.41
2019-01-20T14:08:33.178Z,2.24
2019-01-20T14:12:38.145Z,2.19
2019-01-20T14:16:43.071Z,2.05
2019-01-20T14:20:48.083Z,1.97
2019-01-20T14:24:53.327Z,1.69
2019-01-20T14:28:58.684Z,1.60
2019-01-20T14:33:03.573Z,1.77
2019-01-20T14:37:08.763Z,1.33
2019-01-20T14:41:13.753Z,1.42
2019-01-20T14:45:18.937Z,1.07
2019-01-20T14:49:23.926Z,1.04
2019-01-20T14:53:28.828Z,0.99
2019-01-20T14:57:33.840Z,0.96
2019-01-20T15:01:38.869Z,0.88
2019-01-20T15:05:43.831Z,0.81
2019-01-20T15:09:48.794Z,0.66
2019-01-20T15:13:53.812Z,0.57
2019-01-20T15:17:59.056Z,0.49
2019-01-20T15:22:03.975Z,0.42
2019-01-20T15:26:08.989Z,0.21
2019-01-20T15:30:28.869Z,0.09
2019-01-20T15:34:33.751Z,-0.05
2019-01-20T15:38:38.657Z,-0.13
2019-01-20T15:42:43.899Z,-0.31
2019-01-20T15:46:48.796Z,-0.46
2019-01-20T15:50:53.715Z,-0.63
2019-01-20T15:54:58.661Z,-0.66
2019-01-20T15:59:03.669Z,-0.72
2019-01-20T16:03:08.565Z,-0.99
2019-01-20T16:07:16.598Z,-1.00
2019-01-20T16:11:21.538Z,-1.21
2019-01-20T16:15:40.924Z,-1.41
2019-01-20T16:19:46.154Z,-1.49
2019-01-20T16:23:51.117Z,-1.62
2019-01-20T16:27:56.032Z,-1.89
2019-01-20T16:32:01.067Z,-1.93
2019-01-20T16:36:05.974Z,-2.04
2019-01-20T16:40:14.835Z,-2.15
2019-01-20T16:44:20.089Z,-2.21
2019-01-20T16:48:25.022Z,-2.24
2019-01-20T16:52:29.940Z,-2.42
2019-01-20T16:56:34.820Z,-2.48
2019-01-20T17:00:45.388Z,-2.61
2019-01-20T17:04:50.363Z,-2.46
2019-01-20T17:08:55.546Z,-2.48
2019-01-20T17:13:00.811Z,-2.46
2019-01-20T17:17:05.750Z,-2.60
2019-01-20T17:21:10.729Z,-2.41
2019-01-20T17:25:15.826Z,-2.34
2019-01-20T17:29:20.751Z,-2.18
2019-01-20T17:33:25.666Z,-2.05
2019-01-20T17:37:30.632Z,-1.91
2019-01-20T17:41:35.563Z,-2.01
2019-01-20T17:45:48.489Z,-2.13
2019-01-20T17:49:51.590Z,-2.06
2019-01-20T17:53:56.497Z,-2.16
2019-01-20T17:58:01.712Z,-2.37
2019-01-20T18:02:06.682Z,-2.27
2019-01-20T18:06:11.678Z,-2.30
2019-01-20T18:10:16.743Z,-2.45
2019-01-20T18:14:21.666Z,-2.72
2019-01-20T18:18:26.860Z,-2.77
2019-01-20T18:22:31.828Z,-2.87
2019-01-20T18:26:37.156Z,-2.93
2019-01-20T18:30:42.449Z,-3.05
2019-01-20T18:34:47.477Z,-3.13
2019-01-20T18:38:52.379Z,-3.00
2019-01-20T18:42:57.862Z,-3.26
2019-01-20T18:47:03.004Z,-3.38
2019-01-20T18:51:07.947Z,-3.37
2019-01-20T18:55:13.986Z,-3.42
2019-01-20T18:59:19.462Z,-3.45
2019-01-20T19:03:24.504Z,-3.53
2019-01-20T19:07:29.382Z,-3.57
2019-01-20T19:11:34.316Z,-3.53
2019-01-20T19:15:39.274Z,-3.48
2019-01-20T19:19:44.216Z,-3.51
2019-01-20T19:23:49.233Z,-3.68
2019-01-20T19:27:54.338Z,-3.77
2019-01-20T19:31:59.376Z,-3.63
2019-01-20T19:36:04.497Z,-3.65
2019-01-20T19:40:10.735Z,-3.69
2019-01-20T19:44:15.731Z,-3.78
2019-01-20T19:48:20.790Z,-3.76
2019-01-20T19:52:25.815Z,-3.91
2019-01-20T19:56:31.056Z,-4.11
2019-01-20T20:00:36.115Z,-3.92
2019-01-20T20:04:41.143Z,-4.03
2019-01-20T20:08:46.150Z,-4.17
2019-01-20T20:12:51.132Z,-4.02
2019-01-20T20:16:56.143Z,-4.02
2019-01-20T20:21:01.087Z,-4.09
2019-01-20T20:25:07.389Z,-4.15
2019-01-20T20:29:12.333Z,-4.11
2019-01-20T20:33:17.262Z,-4.24
2019-01-20T20:37:22.216Z,-4.23
2019-01-20T20:41:27.139Z,-4.29
2019-01-20T20:45:32.156Z,-4.27
2019-01-20T20:49:37.224Z,-4.22
2019-01-20T20:53:42.141Z,-4.28
2019-01-20T20:57:47.179Z,-4.33
2019-01-20T21:01:52.506Z,-4.18
2019-01-20T21:05:57.620Z,-4.44
2019-01-20T21:10:02.559Z,-4.35
2019-01-20T21:14:07.640Z,-4.48
2019-01-20T21:18:12.911Z,-4.43
2019-01-20T21:22:18.113Z,-4.51
2019-01-20T21:26:23.143Z,-4.61
2019-01-20T21:30:28.262Z,-4.61
2019-01-20T21:34:33.168Z,-4.48
2019-01-20T21:38:38.397Z,-4.77
2019-01-20T21:42:43.311Z,-4.91
2019-01-20T21:46:48.231Z,-4.93
2019-01-20T21:50:53.165Z,-5.10
2019-01-20T21:54:58.073Z,-4.99
2019-01-20T21:59:02.990Z,-5.31
2019-01-20T22:03:08.034Z,-5.29
2019-01-20T22:07:12.977Z,-5.13
2019-01-20T22:11:17.911Z,-5.18
2019-01-20T22:15:22.846Z,-5.24
2019-01-20T22:19:27.749Z,-5.29
2019-01-20T22:23:32.708Z,-5.20
2019-01-20T22:27:37.630Z,-5.16
2019-01-20T22:31:42.876Z,-5.29
2019-01-20T22:35:47.803Z,-5.38
2019-01-20T22:39:52.731Z,-5.35
2019-01-20T22:43:58.293Z,-5.42
2019-01-20T22:48:03.292Z,-5.64
2019-01-20T22:52:08.203Z,-5.63
2019-01-20T22:56:13.139Z,-5.71
2019-01-20T23:00:51.881Z,-5.67
2019-01-20T23:04:56.920Z,-5.67
2019-01-20T23:09:06.480Z,-5.84
2019-01-20T23:13:08.812Z,-5.72
2019-01-20T23:17:13.753Z,-5.90
2019-01-20T23:21:18.730Z,-6.03
2019-01-20T23:25:23.649Z,-5.96
2019-01-20T23:29:28.554Z,-6.03
2019-01-20T23:33:33.457Z,-6.20
2019-01-20T23:37:38.390Z,-6.20
2019-01-20T23:41:43.394Z,-6.21
2019-01-20T23:45:48.390Z,-6.19
2019-01-20T23:49:53.315Z,-6.41
2019-01-20T23:53:58.546Z,-6.29
2019-01-20T23:58:03.552Z,-6.29
